Minden, Nebraska
Current Conditions -  °F | °C
As of 10:35 AM on Monday 26 Jan 2015 (Local Time) from KEAR Reporting Station
Clear Clear  
Wind Chill: 54°   Ceiling: Unl
Heat Index: 54°   Visibility: 10mi
Dew Point: 34°   Wind: 15mph
Humidity: 47%   Direction: 320°NW
Pressure: 30.02"   Gusts: NA
Location:  40.5°N, 98.95°W
Report Text: KEAR 261635Z 32013KT 10SM CLR 12/01 A3002 RMK AO1
Loading
Personal Weather Stations






























Interactive Weather Map New forecast layout! Learn more

10-Day Weather Forecast

Advertisements
Track Severe Weather on mobile